X  Blizu METAR Podaci o vazduhoplovstvu     EHDL Deelen Air Base
Temperatura
12°C Temperatura
12°C Tačka Rose
100% Vlaga



Vetar
3 KM/S
2 MPS
1 M/S
2 Čvorovi



30°
SSI
Trenutna situacija

Slaba Kiša, Slaba Sipiti Slaba Kiša, Slaba Sipiti
Vazdušni pritisak 1016.93 (hPa) - 30.03 (inHg)
Vidljivost 6 (Milje) - 9.7 (km)
Aerodrom
Aerodromski kod. EHDL

Lokacija: Deelen Air Base
Udaljenost: 14 (km)

Metar:
EHDL 272125Z AUTO 03002KT 9999 -RADZ FEW015CB BKN040 BKN045 OVC054 12/12 Q1017 BLU

Vreme: 27-05-2024 23:25 CEST